Time;durP1;ratioP1;P1;durP2;ratioP2;P2;SDS_P1;SDS_P2;PMS_P1;PMS_P2;Temp;Humidity;BMP_temperature;BMP_pressure;BME280_temperature;BME280_humidity;BME280_pressure;Samples;Min_cycle;Max_cycle;Signal;HPM_P1;HPM_P2
2021/11/03 00:00:56;;;;;;;15.67;10.13;;;;;;;;;;5053539;28;20206;-81
2021/11/03 00:03:23;;;;;;;12.77;9.60;;;;;;;;;;5054213;28;20200;-81
2021/11/03 00:05:51;;;;;;;15.13;10.37;;;;;;;;;;5054844;28;20287;-82
2021/11/03 00:08:20;;;;;;;11.87;9.50;;;;;;;;;;5054099;28;20293;-81
2021/11/03 00:10:48;;;;;;;15.30;9.83;;;;;;;;;;5052993;28;20290;-81
2021/11/03 00:13:16;;;;;;;12.33;9.20;;;;;;;;;;5053643;28;20234;-81
2021/11/03 00:15:45;;;;;;;11.10;8.70;;;;;;;;;;5052400;28;20278;-81
2021/11/03 00:18:12;;;;;;;11.53;8.93;;;;;;;;;;5053731;28;20307;-81
2021/11/03 00:20:39;;;;;;;12.33;8.90;;;;;;;;;;5054069;28;20307;-81
2021/11/03 00:23:07;;;;;;;10.77;8.73;;;;;;;;;;5054152;28;20227;-82
2021/11/03 00:25:37;;;;;;;13.33;9.37;;;;;;;;;;5054677;28;20377;-82
2021/11/03 00:28:05;;;;;;;13.37;9.00;;;;;;;;;;5053396;28;20282;-81
2021/11/03 00:30:32;;;;;;;12.63;8.50;;;;;;;;;;5053191;28;20739;-82
2021/11/03 00:33:00;;;;;;;12.73;8.90;;;;;;;;;;5053459;28;20231;-81
2021/11/03 00:35:28;;;;;;;12.57;9.27;;;;;;;;;;5053600;28;20294;-82
2021/11/03 00:37:55;;;;;;;12.03;8.67;;;;;;;;;;5053337;28;20324;-82
2021/11/03 00:40:22;;;;;;;12.23;9.27;;;;;;;;;;5053993;28;20285;-82
2021/11/03 00:42:50;;;;;;;11.47;9.20;;;;;;;;;;5053374;28;20297;-82
2021/11/03 00:45:18;;;;;;;13.33;9.33;;;;;;;;;;5053057;28;20202;-81
2021/11/03 00:47:45;;;;;;;13.33;9.30;;;;;;;;;;5053528;28;20199;-82
2021/11/03 00:50:14;;;;;;;11.23;9.03;;;;;;;;;;5053412;28;20269;-81
2021/11/03 00:52:41;;;;;;;11.10;8.20;;;;;;;;;;5053636;28;20234;-81
2021/11/03 00:55:09;;;;;;;13.00;9.00;;;;;;;;;;5053728;28;20294;-81
2021/11/03 00:57:36;;;;;;;11.60;8.73;;;;;;;;;;5051905;28;20314;-82
2021/11/03 01:00:05;;;;;;;13.97;8.50;;;;;;;;;;5052355;28;20601;-82
2021/11/03 01:02:32;;;;;;;10.83;8.63;;;;;;;;;;5053546;28;20629;-81
2021/11/03 01:04:59;;;;;;;14.70;9.10;;;;;;;;;;5052890;28;20209;-81
2021/11/03 01:07:28;;;;;;;12.77;8.80;;;;;;;;;;5053094;28;20229;-82
2021/11/03 01:09:55;;;;;;;11.87;8.50;;;;;;;;;;5052351;28;20289;-81
2021/11/03 01:12:22;;;;;;;12.93;8.47;;;;;;;;;;5052823;28;20198;-81
2021/11/03 01:14:50;;;;;;;14.57;8.67;;;;;;;;;;5052919;28;20457;-81
2021/11/03 01:17:17;;;;;;;12.90;8.60;;;;;;;;;;5035351;28;20297;-81
2021/11/03 01:19:45;;;;;;;13.10;9.20;;;;;;;;;;5052664;28;20250;-82
2021/11/03 01:22:12;;;;;;;12.17;8.50;;;;;;;;;;5052674;28;20290;-81
2021/11/03 01:24:41;;;;;;;13.53;8.57;;;;;;;;;;5052592;28;20304;-82
2021/11/03 01:27:08;;;;;;;13.40;8.87;;;;;;;;;;5052363;28;20230;-82
2021/11/03 01:29:35;;;;;;;10.97;8.47;;;;;;;;;;5051711;28;20234;-81
2021/11/03 01:32:02;;;;;;;12.07;8.47;;;;;;;;;;5052458;28;20290;-81
2021/11/03 01:34:29;;;;;;;12.27;8.70;;;;;;;;;;5051957;28;20238;-82
2021/11/03 01:36:57;;;;;;;14.47;8.70;;;;;;;;;;5052241;28;20249;-82
2021/11/03 01:39:24;;;;;;;11.57;8.10;;;;;;;;;;5051936;28;20250;-82
2021/11/03 01:41:53;;;;;;;10.50;8.07;;;;;;;;;;5052636;28;20286;-82
2021/11/03 01:44:20;;;;;;;13.60;8.30;;;;;;;;;;5051546;28;20226;-82
2021/11/03 01:46:49;;;;;;;13.70;8.50;;;;;;;;;;5052230;28;20281;-81
2021/11/03 01:49:18;;;;;;;11.20;7.80;;;;;;;;;;5051819;28;20215;-81
2021/11/03 01:51:47;;;;;;;12.90;8.60;;;;;;;;;;5052155;28;20298;-82
2021/11/03 01:54:18;;;;;;;14.33;9.10;;;;;;;;;;5052640;28;20293;-81
2021/11/03 01:56:45;;;;;;;14.27;9.40;;;;;;;;;;5051759;28;20241;-81
2021/11/03 01:59:18;;;;;;;12.53;8.70;;;;;;;;;;5051215;28;20303;-81
2021/11/03 02:01:45;;;;;;;13.70;8.87;;;;;;;;;;5051462;28;20286;-81
2021/11/03 02:04:12;;;;;;;13.13;8.17;;;;;;;;;;5052219;28;21304;-81
2021/11/03 02:06:40;;;;;;;12.90;8.47;;;;;;;;;;5051799;28;20240;-81
2021/11/03 02:09:07;;;;;;;10.93;7.77;;;;;;;;;;5051091;28;20286;-81
2021/11/03 02:11:35;;;;;;;13.10;8.03;;;;;;;;;;5051187;28;20634;-81
2021/11/03 02:14:04;;;;;;;15.97;9.00;;;;;;;;;;5051534;28;20234;-82
2021/11/03 02:16:34;;;;;;;15.77;8.40;;;;;;;;;;5051936;28;20698;-81
2021/11/03 02:19:01;;;;;;;17.13;8.93;;;;;;;;;;5051602;28;20321;-82
2021/11/03 02:21:36;;;;;;;12.87;7.93;;;;;;;;;;5051897;28;20234;-81
2021/11/03 02:24:05;;;;;;;13.20;7.93;;;;;;;;;;5051799;28;20289;-82
2021/11/03 02:26:37;;;;;;;14.07;7.93;;;;;;;;;;5051855;28;20212;-81
2021/11/03 02:29:06;;;;;;;11.50;7.37;;;;;;;;;;5051864;28;20575;-82
2021/11/03 02:31:34;;;;;;;10.60;7.40;;;;;;;;;;5052248;28;20310;-81
2021/11/03 02:34:02;;;;;;;12.20;7.00;;;;;;;;;;5051233;28;20235;-81
2021/11/03 02:36:29;;;;;;;9.03;6.50;;;;;;;;;;5050291;28;20237;-81
2021/11/03 02:38:57;;;;;;;11.73;6.23;;;;;;;;;;5050986;28;20219;-81
2021/11/03 02:41:25;;;;;;;10.87;6.57;;;;;;;;;;5051350;28;20203;-81
2021/11/03 02:43:57;;;;;;;10.30;6.00;;;;;;;;;;5051478;28;20289;-81
2021/11/03 02:46:24;;;;;;;8.97;6.77;;;;;;;;;;5041380;28;20278;-82
2021/11/03 02:48:51;;;;;;;13.83;6.77;;;;;;;;;;5051838;28;20232;-81
2021/11/03 02:51:20;;;;;;;7.83;5.73;;;;;;;;;;5050716;28;20285;-81
2021/11/03 02:53:48;;;;;;;9.47;5.67;;;;;;;;;;5051156;28;20429;-81
2021/11/03 02:56:17;;;;;;;9.10;5.50;;;;;;;;;;5051722;28;20578;-81
2021/11/03 02:58:45;;;;;;;12.27;6.13;;;;;;;;;;5051666;28;20219;-81
2021/11/03 03:01:15;;;;;;;8.87;5.57;;;;;;;;;;5051171;28;20199;-82
2021/11/03 03:03:45;;;;;;;8.80;5.40;;;;;;;;;;5051180;28;20203;-81
2021/11/03 03:06:14;;;;;;;8.30;5.63;;;;;;;;;;5051138;28;20213;-81
2021/11/03 03:08:41;;;;;;;7.30;5.90;;;;;;;;;;5050533;28;20230;-82
2021/11/03 03:11:09;;;;;;;10.23;6.20;;;;;;;;;;5051486;28;20286;-81
2021/11/03 03:13:38;;;;;;;9.47;6.27;;;;;;;;;;5050450;28;20286;-82
2021/11/03 03:16:06;;;;;;;12.23;6.70;;;;;;;;;;5050890;28;20703;-81
2021/11/03 03:18:34;;;;;;;8.70;5.60;;;;;;;;;;5050434;28;20292;-81
2021/11/03 03:21:02;;;;;;;6.83;5.60;;;;;;;;;;5053140;28;20201;-82
2021/11/03 03:23:29;;;;;;;8.53;5.57;;;;;;;;;;5054129;28;20689;-80
2021/11/03 03:25:59;;;;;;;8.77;5.77;;;;;;;;;;5055228;28;20229;-81
2021/11/03 03:28:27;;;;;;;8.03;6.10;;;;;;;;;;5054882;28;20229;-81
2021/11/03 03:30:54;;;;;;;8.00;5.50;;;;;;;;;;5054698;28;20232;-82
2021/11/03 03:33:21;;;;;;;8.37;5.90;;;;;;;;;;5054360;28;20281;-81
2021/11/03 03:35:50;;;;;;;10.20;6.10;;;;;;;;;;5054386;28;20231;-81
2021/11/03 03:38:17;;;;;;;9.20;5.83;;;;;;;;;;5046771;28;20202;-81
2021/11/03 03:40:44;;;;;;;10.00;6.97;;;;;;;;;;5055235;28;20267;-81
2021/11/03 03:43:11;;;;;;;12.13;6.80;;;;;;;;;;5054882;28;20294;-81
2021/11/03 03:45:38;;;;;;;8.43;6.23;;;;;;;;;;5054668;28;20636;-81
2021/11/03 03:48:05;;;;;;;8.57;6.23;;;;;;;;;;5055016;28;20229;-81
2021/11/03 03:50:33;;;;;;;8.20;6.20;;;;;;;;;;5053780;28;20257;-80
2021/11/03 03:53:02;;;;;;;8.37;5.37;;;;;;;;;;5054197;28;20289;-81
2021/11/03 03:55:29;;;;;;;8.63;5.40;;;;;;;;;;5055192;28;20384;-81
2021/11/03 03:57:56;;;;;;;8.33;5.43;;;;;;;;;;5054578;28;20285;-81
2021/11/03 04:00:24;;;;;;;6.83;5.70;;;;;;;;;;5054010;28;20250;-81
2021/11/03 04:02:52;;;;;;;9.27;5.67;;;;;;;;;;5054276;28;20610;-81
2021/11/03 04:05:22;;;;;;;8.77;6.40;;;;;;;;;;5052195;28;20219;-81
2021/11/03 04:07:50;;;;;;;8.80;6.40;;;;;;;;;;5053569;28;20289;-81
2021/11/03 04:10:19;;;;;;;8.30;6.33;;;;;;;;;;5053849;28;20226;-81
2021/11/03 04:12:46;;;;;;;10.93;6.27;;;;;;;;;;5053640;28;20231;-81
2021/11/03 04:15:14;;;;;;;8.97;6.40;;;;;;;;;;5053370;28;20321;-82
2021/11/03 04:17:41;;;;;;;8.77;5.83;;;;;;;;;;5053278;28;20660;-82
2021/11/03 04:20:10;;;;;;;9.63;6.63;;;;;;;;;;5053339;28;20262;-81
2021/11/03 04:22:38;;;;;;;7.77;6.67;;;;;;;;;;5052917;28;20289;-82
2021/11/03 04:25:05;;;;;;;7.40;6.27;;;;;;;;;;5053805;28;20634;-82
2021/11/03 04:27:34;;;;;;;8.20;6.07;;;;;;;;;;5053812;28;20697;-81
2021/11/03 04:30:01;;;;;;;8.17;5.90;;;;;;;;;;5053700;28;20279;-80
2021/11/03 04:32:29;;;;;;;9.37;5.50;;;;;;;;;;5054289;28;20236;-82
2021/11/03 04:34:56;;;;;;;8.27;5.40;;;;;;;;;;5054359;28;20372;-81
2021/11/03 04:37:23;;;;;;;7.40;4.87;;;;;;;;;;5053943;28;20290;-82
2021/11/03 04:39:50;;;;;;;5.70;4.93;;;;;;;;;;5054328;28;20661;-81
2021/11/03 04:42:17;;;;;;;5.97;5.03;;;;;;;;;;5053191;28;20232;-82
2021/11/03 04:44:46;;;;;;;5.80;4.70;;;;;;;;;;5053443;28;20243;-81
2021/11/03 04:47:13;;;;;;;6.17;4.50;;;;;;;;;;5052903;28;20241;-81
2021/11/03 04:49:40;;;;;;;6.83;5.20;;;;;;;;;;5053601;28;20287;-81
2021/11/03 04:52:08;;;;;;;7.93;4.80;;;;;;;;;;5053268;28;20237;-81
2021/11/03 04:54:35;;;;;;;7.07;5.17;;;;;;;;;;5053107;28;20231;-81
2021/11/03 04:57:02;;;;;;;8.43;5.60;;;;;;;;;;5053267;28;20195;-81
2021/11/03 04:59:30;;;;;;;7.03;5.23;;;;;;;;;;5053397;28;20255;-80
2021/11/03 05:01:58;;;;;;;7.83;5.43;;;;;;;;;;5052694;28;20296;-82
2021/11/03 05:04:25;;;;;;;8.93;6.10;;;;;;;;;;5052864;28;20221;-81
2021/11/03 05:06:53;;;;;;;6.83;5.80;;;;;;;;;;5053041;28;20303;-82
2021/11/03 05:09:20;;;;;;;7.73;5.47;;;;;;;;;;5053657;28;20240;-81
2021/11/03 05:11:47;;;;;;;7.57;5.93;;;;;;;;;;5053180;28;20288;-81
2021/11/03 05:14:14;;;;;;;7.63;5.73;;;;;;;;;;5053073;28;20362;-81
2021/11/03 05:16:42;;;;;;;7.03;5.63;;;;;;;;;;5052942;28;20296;-81
2021/11/03 05:19:11;;;;;;;8.07;6.27;;;;;;;;;;5052729;28;20318;-81
2021/11/03 05:21:43;;;;;;;8.87;5.77;;;;;;;;;;5053529;28;20292;-81
2021/11/03 05:24:10;;;;;;;9.23;6.27;;;;;;;;;;5033892;28;20267;-82
2021/11/03 05:26:37;;;;;;;7.57;5.90;;;;;;;;;;5042392;28;20744;-81
2021/11/03 05:29:05;;;;;;;8.67;6.10;;;;;;;;;;5053031;28;20287;-81
2021/11/03 05:31:32;;;;;;;6.77;5.73;;;;;;;;;;5052662;28;20232;-81
2021/11/03 05:34:00;;;;;;;8.20;5.73;;;;;;;;;;5052331;28;20279;-81
2021/11/03 05:36:29;;;;;;;8.20;5.90;;;;;;;;;;5052716;28;20278;-81
2021/11/03 05:38:57;;;;;;;6.70;4.60;;;;;;;;;;5052298;28;20288;-81
2021/11/03 05:41:24;;;;;;;7.63;5.00;;;;;;;;;;5052400;28;20303;-81
2021/11/03 05:43:51;;;;;;;5.77;4.60;;;;;;;;;;5051579;28;20285;-81
2021/11/03 05:46:20;;;;;;;6.10;4.67;;;;;;;;;;5052324;28;20284;-81
2021/11/03 05:48:50;;;;;;;7.53;5.07;;;;;;;;;;5052091;28;20288;-81
2021/11/03 05:51:19;;;;;;;8.33;5.53;;;;;;;;;;5052735;28;20196;-82
2021/11/03 05:53:48;;;;;;;6.30;4.60;;;;;;;;;;5052700;28;20206;-81
2021/11/03 05:56:15;;;;;;;7.43;5.07;;;;;;;;;;5052832;28;20294;-81
2021/11/03 05:58:42;;;;;;;8.60;5.00;;;;;;;;;;5052643;28;20193;-81
2021/11/03 06:01:09;;;;;;;7.73;5.07;;;;;;;;;;5051126;28;20308;-81
2021/11/03 06:03:37;;;;;;;9.37;5.17;;;;;;;;;;5051959;28;20228;-82
2021/11/03 06:06:04;;;;;;;5.60;4.73;;;;;;;;;;5051953;28;20279;-82
2021/11/03 06:08:31;;;;;;;6.43;4.70;;;;;;;;;;5034730;28;20287;-83
2021/11/03 06:11:03;;;;;;;5.97;5.00;;;;;;;;;;5052397;28;20286;-82
2021/11/03 06:13:30;;;;;;;7.27;4.90;;;;;;;;;;5051726;28;20278;-83
2021/11/03 06:15:58;;;;;;;6.13;4.40;;;;;;;;;;5052106;28;20283;-83
2021/11/03 06:18:25;;;;;;;6.60;4.90;;;;;;;;;;5050831;28;20300;-84
2021/11/03 06:20:52;;;;;;;10.83;5.00;;;;;;;;;;5051725;28;20307;-83
2021/11/03 06:23:20;;;;;;;8.13;4.73;;;;;;;;;;5051681;28;20291;-84
2021/11/03 06:25:47;;;;;;;6.53;4.70;;;;;;;;;;5051912;28;20637;-84
2021/11/03 06:28:15;;;;;;;6.67;4.67;;;;;;;;;;5051898;28;20279;-83
2021/11/03 06:30:43;;;;;;;5.53;4.30;;;;;;;;;;5051250;28;20200;-82
2021/11/03 06:33:10;;;;;;;7.53;4.63;;;;;;;;;;5041676;28;20729;-81
2021/11/03 06:35:44;;;;;;;6.13;4.10;;;;;;;;;;5050653;28;20228;-80
2021/11/03 06:38:13;;;;;;;5.30;4.30;;;;;;;;;;5050165;28;20255;-80
2021/11/03 06:40:41;;;;;;;5.90;4.50;;;;;;;;;;5050046;28;20220;-81
2021/11/03 06:43:08;;;;;;;5.87;4.50;;;;;;;;;;5050736;28;20196;-80
2021/11/03 06:45:38;;;;;;;4.43;3.73;;;;;;;;;;5050918;28;20199;-81
2021/11/03 06:48:06;;;;;;;5.53;4.00;;;;;;;;;;5050933;28;20567;-81
2021/11/03 06:50:34;;;;;;;5.83;4.50;;;;;;;;;;5050828;28;20355;-81
2021/11/03 06:53:03;;;;;;;5.53;4.60;;;;;;;;;;5051258;28;20187;-80
2021/11/03 06:55:30;;;;;;;18.13;14.77;;;;;;;;;;5051450;28;20211;-81
2021/11/03 06:57:58;;;;;;;21.23;17.67;;;;;;;;;;5050755;28;20283;-81
2021/11/03 07:00:27;;;;;;;18.70;15.23;;;;;;;;;;5050618;28;20306;-81
2021/11/03 07:02:56;;;;;;;13.03;10.80;;;;;;;;;;5051098;28;20203;-81
2021/11/03 07:05:24;;;;;;;14.73;11.93;;;;;;;;;;5051497;28;20294;-80
2021/11/03 07:07:51;;;;;;;12.70;11.33;;;;;;;;;;5051139;28;20208;-80
2021/11/03 07:10:21;;;;;;;12.80;10.70;;;;;;;;;;5051499;28;20287;-81
2021/11/03 07:12:48;;;;;;;12.93;9.63;;;;;;;;;;5050678;28;20294;-81
2021/11/03 07:15:16;;;;;;;10.63;8.97;;;;;;;;;;5050132;28;20778;-81
2021/11/03 07:17:44;;;;;;;10.43;8.53;;;;;;;;;;5051431;28;20232;-81
2021/11/03 07:20:13;;;;;;;9.10;6.40;;;;;;;;;;5050210;28;20250;-81
2021/11/03 07:22:40;;;;;;;7.40;5.50;;;;;;;;;;5051330;28;20295;-81
2021/11/03 07:25:08;;;;;;;10.00;5.37;;;;;;;;;;5050536;28;20294;-81
2021/11/03 07:27:35;;;;;;;6.83;5.50;;;;;;;;;;5050645;28;20207;-81
2021/11/03 07:30:02;;;;;;;8.90;5.63;;;;;;;;;;5049375;28;20290;-81
2021/11/03 07:32:29;;;;;;;8.77;6.33;;;;;;;;;;5047856;28;20207;-81
2021/11/03 07:34:56;;;;;;;7.23;5.03;;;;;;;;;;5050336;28;20231;-81
2021/11/03 07:37:25;;;;;;;6.90;5.13;;;;;;;;;;5049501;28;20294;-81
2021/11/03 07:39:52;;;;;;;4.07;3.50;;;;;;;;;;5043829;28;20290;-81
2021/11/03 07:42:19;;;;;;;4.23;3.10;;;;;;;;;;5043913;28;20224;-81
2021/11/03 07:44:47;;;;;;;2.23;2.03;;;;;;;;;;5050147;28;20762;-81
2021/11/03 07:47:14;;;;;;;4.77;2.53;;;;;;;;;;5046277;28;20742;-81
2021/11/03 07:49:41;;;;;;;3.63;2.27;;;;;;;;;;5050216;28;20287;-81
2021/11/03 07:52:08;;;;;;;2.50;2.30;;;;;;;;;;5050198;28;20745;-80
2021/11/03 07:54:37;;;;;;;2.83;2.40;;;;;;;;;;5043234;28;20205;-80
2021/11/03 07:57:04;;;;;;;2.63;2.43;;;;;;;;;;5050254;28;20238;-81
2021/11/03 07:59:31;;;;;;;3.27;2.27;;;;;;;;;;5048829;28;20636;-80
2021/11/03 08:02:00;;;;;;;4.20;3.80;;;;;;;;;;5049982;28;20298;-81
2021/11/03 08:04:28;;;;;;;14.27;10.77;;;;;;;;;;5049049;28;20200;-80
2021/11/03 08:06:56;;;;;;;23.33;20.17;;;;;;;;;;5038841;28;20200;-80
2021/11/03 08:09:23;;;;;;;19.20;17.13;;;;;;;;;;5053667;28;20360;-80
2021/11/03 08:11:53;;;;;;;18.23;14.90;;;;;;;;;;5053439;28;20200;-81
2021/11/03 08:14:22;;;;;;;15.00;13.00;;;;;;;;;;5053707;28;20455;-81
2021/11/03 08:16:52;;;;;;;13.23;11.80;;;;;;;;;;5053610;28;20250;-80
2021/11/03 08:19:20;;;;;;;5.88;4.78;;;;;;;;;;5053676;28;20578;-81
2021/11/03 08:21:47;;;;;;;2.55;1.80;;;;;;;;;;5053447;28;20306;-81
2021/11/03 08:24:14;;;;;;;2.05;1.70;;;;;;;;;;5054120;28;20636;-79
2021/11/03 08:26:41;;;;;;;4.80;2.70;;;;;;;;;;5047472;28;20298;-80
2021/11/03 08:29:10;;;;;;;3.55;2.70;;;;;;;;;;5053262;28;20690;-80
2021/11/03 08:31:38;;;;;;;4.13;3.47;;;;;;;;;;5053911;28;20269;-80
2021/11/03 08:34:05;;;;;;;4.88;3.35;;;;;;;;;;5053334;28;20702;-80
2021/11/03 08:36:32;;;;;;;3.47;2.92;;;;;;;;;;5053492;28;20290;-80
2021/11/03 08:38:59;;;;;;;3.00;2.40;;;;;;;;;;5052544;28;20281;-80
2021/11/03 08:41:28;;;;;;;3.90;1.60;;;;;;;;;;5053085;28;20698;-79
2021/11/03 08:43:55;;;;;;;2.67;2.15;;;;;;;;;;5052946;28;20206;-79
2021/11/03 08:46:24;;;;;;;3.15;2.30;;;;;;;;;;5053015;28;20769;-80
2021/11/03 08:48:52;;;;;;;3.22;2.55;;;;;;;;;;5050345;28;20200;-80
2021/11/03 08:51:19;;;;;;;1.73;1.60;;;;;;;;;;5052441;28;20188;-81
2021/11/03 08:53:46;;;;;;;2.22;1.58;;;;;;;;;;5053083;28;20227;-80
2021/11/03 08:56:15;;;;;;;2.58;1.50;;;;;;;;;;5050923;28;20682;-80
2021/11/03 08:58:42;;;;;;;2.03;1.60;;;;;;;;;;5051013;28;20635;-81
2021/11/03 09:01:10;;;;;;;3.00;1.67;;;;;;;;;;5050187;28;20270;-80
2021/11/03 09:03:40;;;;;;;3.72;1.40;;;;;;;;;;5052551;28;20207;-80
2021/11/03 09:06:07;;;;;;;3.35;1.40;;;;;;;;;;5049992;28;20207;-80
2021/11/03 09:08:34;;;;;;;2.78;1.52;;;;;;;;;;5052158;28;20231;-80
2021/11/03 09:11:02;;;;;;;3.40;1.52;;;;;;;;;;5051720;28;20231;-79
2021/11/03 09:13:31;;;;;;;2.22;1.60;;;;;;;;;;5051349;28;20203;-80
2021/11/03 09:15:58;;;;;;;3.40;1.48;;;;;;;;;;5051701;28;20362;-80
2021/11/03 09:18:25;;;;;;;2.20;1.70;;;;;;;;;;5051089;28;20227;-80
2021/11/03 09:20:55;;;;;;;2.88;1.55;;;;;;;;;;5052461;28;20300;-80
2021/11/03 09:23:22;;;;;;;2.47;1.60;;;;;;;;;;5052820;28;20239;-80
2021/11/03 09:25:50;;;;;;;1.75;1.48;;;;;;;;;;5052254;28;20231;-80
2021/11/03 09:28:18;;;;;;;2.13;1.60;;;;;;;;;;5052473;28;20671;-80
2021/11/03 09:30:45;;;;;;;3.05;1.70;;;;;;;;;;5052072;28;20196;-80
2021/11/03 09:33:13;;;;;;;2.20;1.55;;;;;;;;;;5051535;28;20702;-80
2021/11/03 09:35:42;;;;;;;2.88;1.50;;;;;;;;;;5051297;28;20235;-80
2021/11/03 09:38:11;;;;;;;3.85;1.80;;;;;;;;;;5051444;28;20625;-80
2021/11/03 09:40:46;;;;;;;3.35;1.77;;;;;;;;;;5052005;28;20291;-80
2021/11/03 09:43:30;;;;;;;2.72;1.95;;;;;;;;;;5052036;28;20291;-80
2021/11/03 09:45:59;;;;;;;2.63;1.60;;;;;;;;;;5051942;28;20286;-80
2021/11/03 09:48:28;;;;;;;3.35;1.73;;;;;;;;;;5052416;28;20711;-80
2021/11/03 09:50:57;;;;;;;2.55;1.60;;;;;;;;;;5051561;28;20750;-81
2021/11/03 09:53:28;;;;;;;1.85;1.40;;;;;;;;;;5052129;28;20642;-80
2021/11/03 09:55:56;;;;;;;2.58;1.50;;;;;;;;;;5051886;28;20200;-80
2021/11/03 09:58:31;;;;;;;4.07;1.40;;;;;;;;;;5052592;28;20239;-80
2021/11/03 10:01:01;;;;;;;5.07;1.40;;;;;;;;;;5051422;28;20273;-79
2021/11/03 10:03:34;;;;;;;2.90;1.42;;;;;;;;;;5052363;28;20888;-79
2021/11/03 10:06:04;;;;;;;2.75;1.60;;;;;;;;;;5043618;28;20283;-80
2021/11/03 10:08:37;;;;;;;2.53;1.45;;;;;;;;;;5051002;28;20208;-79
2021/11/03 10:11:07;;;;;;;2.05;1.50;;;;;;;;;;5051101;28;20761;-80
2021/11/03 10:13:37;;;;;;;3.22;1.48;;;;;;;;;;5048441;28;20735;-80
2021/11/03 10:16:23;;;;;;;4.10;1.58;;;;;;;;;;5050118;28;20261;-80
2021/11/03 10:18:58;;;;;;;2.50;1.63;;;;;;;;;;5051492;28;20222;-79
2021/11/03 10:21:26;;;;;;;4.78;1.60;;;;;;;;;;5049679;28;20269;-80
2021/11/03 10:23:56;;;;;;;2.60;1.55;;;;;;;;;;5039373;28;20642;-80
2021/11/03 10:26:24;;;;;;;2.85;1.77;;;;;;;;;;5051240;28;20298;-80
2021/11/03 10:28:52;;;;;;;4.00;1.55;;;;;;;;;;5051062;28;20711;-80
2021/11/03 10:31:25;;;;;;;2.28;1.35;;;;;;;;;;5050639;28;20322;-80
2021/11/03 10:33:59;;;;;;;3.63;1.35;;;;;;;;;;5051295;28;20290;-80
2021/11/03 10:36:28;;;;;;;2.45;1.40;;;;;;;;;;5043788;28;20246;-80
2021/11/03 10:38:58;;;;;;;2.22;1.30;;;;;;;;;;5051207;28;20200;-80
2021/11/03 10:41:29;;;;;;;2.53;1.63;;;;;;;;;;5050638;28;20226;-80
2021/11/03 10:44:07;;;;;;;2.15;1.33;;;;;;;;;;5050028;28;20209;-80
2021/11/03 10:46:40;;;;;;;3.28;1.30;;;;;;;;;;5047401;28;20195;-80
2021/11/03 10:49:16;;;;;;;3.10;1.30;;;;;;;;;;5049914;28;20207;-80
2021/11/03 10:51:45;;;;;;;2.10;1.27;;;;;;;;;;5050092;28;20199;-80
2021/11/03 10:54:15;;;;;;;2.55;1.40;;;;;;;;;;5051043;28;20282;-80
2021/11/03 10:56:51;;;;;;;1.88;1.15;;;;;;;;;;5050615;28;20231;-80
2021/11/03 10:59:26;;;;;;;3.97;1.80;;;;;;;;;;5042749;28;20200;-80
2021/11/03 11:01:54;;;;;;;2.08;1.25;;;;;;;;;;5051227;28;20266;-80
2021/11/03 11:04:23;;;;;;;3.22;1.02;;;;;;;;;;5049978;28;20810;-80
2021/11/03 11:06:51;;;;;;;2.38;1.00;;;;;;;;;;5048760;28;20337;-80
2021/11/03 11:09:24;;;;;;;2.67;1.10;;;;;;;;;;5050501;28;20227;-80
2021/11/03 11:11:54;;;;;;;2.70;1.27;;;;;;;;;;5050445;28;20279;-80
2021/11/03 11:14:23;;;;;;;1.60;1.10;;;;;;;;;;5050426;28;20310;-79
2021/11/03 11:16:54;;;;;;;1.60;1.13;;;;;;;;;;5047243;28;20291;-79
2021/11/03 11:19:39;;;;;;;2.28;1.52;;;;;;;;;;5050877;28;20195;-80
2021/11/03 11:22:15;;;;;;;3.35;1.23;;;;;;;;;;5038467;28;20247;-80
2021/11/03 11:24:47;;;;;;;3.00;1.30;;;;;;;;;;5048860;28;20241;-80
2021/11/03 11:27:19;;;;;;;4.03;1.50;;;;;;;;;;5045379;28;20287;-80
2021/11/03 11:29:49;;;;;;;3.55;1.30;;;;;;;;;;5047545;28;20235;-80
2021/11/03 11:32:23;;;;;;;1.45;1.00;;;;;;;;;;5041431;28;20192;-79
2021/11/03 11:34:58;;;;;;;4.47;1.30;;;;;;;;;;5046988;28;20235;-80
2021/11/03 11:37:29;;;;;;;3.67;1.45;;;;;;;;;;5049916;28;20278;-80
2021/11/03 11:40:00;;;;;;;3.13;1.27;;;;;;;;;;5050030;28;20569;-81
2021/11/03 11:42:32;;;;;;;3.47;1.13;;;;;;;;;;5051622;28;20762;-79
2021/11/03 11:45:01;;;;;;;2.58;1.38;;;;;;;;;;5054729;28;20282;-79
2021/11/03 11:47:32;;;;;;;3.75;1.33;;;;;;;;;;5054015;28;20279;-80
2021/11/03 11:49:59;;;;;;;1.88;1.35;;;;;;;;;;5047448;28;20196;-80
2021/11/03 11:52:27;;;;;;;3.00;1.25;;;;;;;;;;5054109;28;20223;-80
2021/11/03 11:55:21;;;;;;;2.85;1.38;;;;;;;;;;5053102;28;20245;-80
2021/11/03 11:58:03;;;;;;;2.13;1.50;;;;;;;;;;5053683;28;20326;-80
2021/11/03 12:00:31;;;;;;;3.25;1.45;;;;;;;;;;5053108;28;20196;-80
2021/11/03 12:03:03;;;;;;;2.30;1.38;;;;;;;;;;5053106;28;20621;-80
2021/11/03 12:05:45;;;;;;;2.60;1.20;;;;;;;;;;5053542;28;20302;-81
2021/11/03 12:08:23;;;;;;;4.15;1.33;;;;;;;;;;5046650;28;20202;-80
2021/11/03 12:11:15;;;;;;;2.53;1.38;;;;;;;;;;5053137;28;20231;-80
2021/11/03 12:14:15;;;;;;;2.38;1.20;;;;;;;;;;5054169;28;20227;-80
2021/11/03 12:16:56;;;;;;;3.70;1.40;;;;;;;;;;4992957;28;20655;-80
2021/11/03 12:19:38;;;;;;;3.30;1.80;;;;;;;;;;4991786;28;20205;-80
2021/11/03 12:22:07;;;;;;;4.00;1.58;;;;;;;;;;4978911;28;20268;-80
2021/11/03 12:24:37;;;;;;;1.92;1.55;;;;;;;;;;4991887;28;20202;-80
2021/11/03 12:27:35;;;;;;;5.00;1.48;;;;;;;;;;4991594;28;20240;-79
2021/11/03 12:30:23;;;;;;;4.10;1.50;;;;;;;;;;4990759;28;20213;-80
2021/11/03 12:32:58;;;;;;;2.70;1.55;;;;;;;;;;4986952;28;20228;-81
2021/11/03 12:35:40;;;;;;;5.10;1.77;;;;;;;;;;4987578;28;20228;-81
2021/11/03 12:38:22;;;;;;;3.67;1.47;;;;;;;;;;4997154;28;20223;-80
2021/11/03 12:40:50;;;;;;;3.10;1.63;;;;;;;;;;4992204;28;20284;-80
2021/11/03 12:43:20;;;;;;;2.43;1.40;;;;;;;;;;4990716;28;20605;-80
2021/11/03 12:45:53;;;;;;;5.33;1.83;;;;;;;;;;4991590;28;20289;-80
2021/11/03 12:48:23;;;;;;;5.33;1.57;;;;;;;;;;5038760;28;20636;-80
2021/11/03 12:50:50;;;;;;;4.10;1.30;;;;;;;;;;5053380;28;20273;-80
2021/11/03 12:53:19;;;;;;;1.50;1.13;;;;;;;;;;5052469;28;20283;-81
2021/11/03 12:55:48;;;;;;;3.35;1.40;;;;;;;;;;5053032;28;20287;-81
2021/11/03 12:58:26;;;;;;;3.70;1.20;;;;;;;;;;5053048;28;20290;-80
2021/11/03 13:00:53;;;;;;;2.78;1.30;;;;;;;;;;5046922;28;20196;-81
2021/11/03 13:03:23;;;;;;;6.97;1.27;;;;;;;;;;5051518;28;20298;-80
2021/11/03 13:05:50;;;;;;;2.88;1.17;;;;;;;;;;5052606;28;20200;-80
2021/11/03 13:08:22;;;;;;;4.25;1.15;;;;;;;;;;5053209;28;20196;-80
2021/11/03 13:10:59;;;;;;;3.72;1.67;;;;;;;;;;5051895;28;20570;-80
2021/11/03 13:13:26;;;;;;;2.90;1.10;;;;;;;;;;5044517;28;20283;-80
2021/11/03 13:15:58;;;;;;;2.47;0.82;;;;;;;;;;5052618;28;20254;-81
2021/11/03 13:18:28;;;;;;;1.55;0.82;;;;;;;;;;5048456;28;20675;-80
2021/11/03 13:20:57;;;;;;;2.70;1.20;;;;;;;;;;5050987;28;20625;-81
2021/11/03 13:23:25;;;;;;;3.00;0.70;;;;;;;;;;5052537;28;20330;-80
2021/11/03 13:25:54;;;;;;;5.28;1.30;;;;;;;;;;5052268;28;20303;-81
2021/11/03 13:28:26;;;;;;;2.70;0.80;;;;;;;;;;5050268;28;20279;-81
2021/11/03 13:30:58;;;;;;;2.70;0.90;;;;;;;;;;5052283;28;20227;-83
2021/11/03 13:33:31;;;;;;;2.22;0.90;;;;;;;;;;5051562;28;20234;-82
2021/11/03 13:36:00;;;;;;;3.05;0.75;;;;;;;;;;5051378;28;20228;-81
2021/11/03 13:38:29;;;;;;;2.92;0.68;;;;;;;;;;5049374;28;20239;-81
2021/11/03 13:40:57;;;;;;;3.03;0.70;;;;;;;;;;5049608;28;20234;-81
2021/11/03 13:43:25;;;;;;;3.22;0.70;;;;;;;;;;5052185;28;20657;-81
2021/11/03 13:45:54;;;;;;;2.40;0.73;;;;;;;;;;5050993;28;20239;-81
2021/11/03 13:48:26;;;;;;;3.90;0.80;;;;;;;;;;5052067;28;20234;-81
2021/11/03 13:51:14;;;;;;;1.25;0.70;;;;;;;;;;5051511;28;20287;-81
2021/11/03 13:53:50;;;;;;;2.58;0.88;;;;;;;;;;5051986;28;20195;-81
2021/11/03 13:56:17;;;;;;;2.17;0.77;;;;;;;;;;5051255;28;20283;-81
2021/11/03 13:58:46;;;;;;;5.07;1.02;;;;;;;;;;5052011;28;20290;-83
2021/11/03 14:01:22;;;;;;;3.60;1.02;;;;;;;;;;5050439;28;20228;-81
2021/11/03 14:03:50;;;;;;;2.95;0.80;;;;;;;;;;5051772;28;20215;-85
2021/11/03 14:06:23;;;;;;;4.43;1.20;;;;;;;;;;5048285;28;20714;-82
2021/11/03 14:08:51;;;;;;;7.35;1.30;;;;;;;;;;5050881;28;20206;-83
2021/11/03 14:11:19;;;;;;;2.10;1.20;;;;;;;;;;5050811;28;20693;-83
2021/11/03 14:13:46;;;;;;;3.00;1.00;;;;;;;;;;5050884;28;20315;-82
2021/11/03 14:16:18;;;;;;;4.77;0.80;;;;;;;;;;5032409;28;20219;-81
2021/11/03 14:18:46;;;;;;;3.43;0.97;;;;;;;;;;5051098;28;20210;-82
2021/11/03 14:21:13;;;;;;;1.50;0.63;;;;;;;;;;5050719;28;20294;-82
2021/11/03 14:23:41;;;;;;;3.37;0.70;;;;;;;;;;5051615;28;20244;-82
2021/11/03 14:26:11;;;;;;;1.43;0.60;;;;;;;;;;5051313;28;20287;-81
2021/11/03 14:28:39;;;;;;;3.43;0.60;;;;;;;;;;5051125;28;20283;-82
2021/11/03 14:31:10;;;;;;;2.63;0.87;;;;;;;;;;5050417;28;20706;-81
2021/11/03 14:33:39;;;;;;;2.27;0.80;;;;;;;;;;5051190;28;20283;-82
2021/11/03 14:36:10;;;;;;;1.93;0.90;;;;;;;;;;5050637;28;20211;-82
2021/11/03 14:38:39;;;;;;;3.70;1.30;;;;;;;;;;5050642;28;20768;-82
2021/11/03 14:41:09;;;;;;;1.70;0.93;;;;;;;;;;5051445;28;20196;-81
2021/11/03 14:43:38;;;;;;;5.50;1.30;;;;;;;;;;5050671;28;20341;-82
2021/11/03 14:46:16;;;;;;;2.90;1.43;;;;;;;;;;5050448;28;20311;-81
2021/11/03 14:48:44;;;;;;;3.37;1.63;;;;;;;;;;5050309;28;20290;-82
2021/11/03 14:51:11;;;;;;;3.13;1.50;;;;;;;;;;5050824;28;20231;-81